Time;durP1;ratioP1;P1;durP2;ratioP2;P2;SDS_P1;SDS_P2;PMS_P1;PMS_P2;Temp;Humidity;BMP_temperature;BMP_pressure;BME280_temperature;BME280_humidity;BME280_pressure;Samples;Min_cycle;Max_cycle;Signal;HPM_P1;HPM_P2
2022/06/30 00:00:05;;;;;;;3.80;3.20;;;;;;;21.20;61.90;96866.63;4989998;28;20318;-76
2022/06/30 00:02:30;;;;;;;4.53;3.85;;;;;;;21.15;62.47;96870.25;4955481;28;20728;-76
2022/06/30 00:04:56;;;;;;;4.22;3.90;;;;;;;21.09;62.49;96871.50;4988375;28;20277;-76
2022/06/30 00:07:21;;;;;;;4.38;3.97;;;;;;;21.04;62.72;96877.78;4986368;28;20189;-76
2022/06/30 00:09:46;;;;;;;3.83;3.53;;;;;;;20.99;62.50;96870.03;4996820;28;20742;-76
2022/06/30 00:12:12;;;;;;;3.83;3.53;;;;;;;20.95;62.61;96879.69;5004490;28;20279;-76
2022/06/30 00:14:38;;;;;;;6.20;3.75;;;;;;;20.92;62.36;96875.03;4986035;28;20166;-76
2022/06/30 00:17:04;;;;;;;3.97;3.58;;;;;;;20.96;62.39;96878.59;4997299;28;20660;-76
2022/06/30 00:19:29;;;;;;;3.50;3.20;;;;;;;21.00;62.29;96876.84;5001691;28;20639;-76
2022/06/30 00:21:54;;;;;;;5.53;4.05;;;;;;;20.99;62.27;96872.69;4980332;28;20268;-76
2022/06/30 00:24:20;;;;;;;4.25;3.72;;;;;;;20.95;62.42;96877.81;4999412;28;20401;-76
2022/06/30 00:26:45;;;;;;;3.78;3.47;;;;;;;20.95;62.29;96877.03;4997175;28;20190;-76
2022/06/30 00:29:11;;;;;;;3.80;3.50;;;;;;;20.96;62.27;96875.97;4997531;28;20689;-76
2022/06/30 00:31:37;;;;;;;4.00;3.60;;;;;;;20.94;62.21;96880.81;4995025;28;20246;-76
2022/06/30 00:34:03;;;;;;;3.72;3.42;;;;;;;20.89;62.19;96876.44;4980912;28;20293;-76
2022/06/30 00:36:28;;;;;;;3.75;3.28;;;;;;;20.88;62.26;96876.78;4979416;28;20478;-76
2022/06/30 00:38:53;;;;;;;4.07;3.78;;;;;;;20.86;62.04;96869.16;4981689;28;20402;-76
2022/06/30 00:41:19;;;;;;;3.72;3.42;;;;;;;20.81;62.44;96871.19;4981681;28;20380;-76
2022/06/30 00:43:45;;;;;;;5.97;3.88;;;;;;;20.75;62.64;96868.72;5000279;28;20509;-76
2022/06/30 00:46:11;;;;;;;4.45;4.05;;;;;;;20.75;62.58;96871.38;5002584;28;20174;-76
2022/06/30 00:48:40;;;;;;;3.50;3.20;;;;;;;20.69;62.38;96874.50;5006562;28;20652;-76
2022/06/30 00:51:06;;;;;;;3.80;3.42;;;;;;;20.79;62.35;96868.09;4973464;28;20407;-76
2022/06/30 00:53:35;;;;;;;3.67;3.38;;;;;;;20.75;62.11;96855.50;5006526;28;20262;-76
2022/06/30 00:56:03;;;;;;;3.70;3.40;;;;;;;20.71;62.46;96862.50;4986400;28;20613;-76
2022/06/30 00:58:29;;;;;;;4.15;3.75;;;;;;;20.72;62.16;96863.31;4984602;28;20206;-76
2022/06/30 01:00:55;;;;;;;4.07;3.53;;;;;;;20.67;62.35;96855.53;5007355;28;20662;-76
2022/06/30 01:03:20;;;;;;;4.40;3.90;;;;;;;20.69;62.46;96863.94;5004289;28;20173;-76
2022/06/30 01:05:46;;;;;;;3.70;3.35;;;;;;;20.62;62.48;96856.47;5005849;28;20166;-76
2022/06/30 01:08:12;;;;;;;3.80;3.50;;;;;;;20.63;62.44;96855.41;5002166;28;20247;-76
2022/06/30 01:13:21;;;;;;;4.28;3.88;;;;;;;20.71;62.22;96853.81;5000416;28;20634;-76
2022/06/30 01:15:47;;;;;;;3.70;3.40;;;;;;;20.68;61.84;96851.78;4989101;28;20190;-76
2022/06/30 01:18:12;;;;;;;3.60;3.30;;;;;;;20.65;62.17;96853.22;4985673;28;20194;-76
2022/06/30 01:20:38;;;;;;;3.83;3.40;;;;;;;20.59;62.31;96851.78;4985327;28;20194;-76
2022/06/30 01:23:04;;;;;;;4.80;3.55;;;;;;;20.52;62.65;96856.81;4975642;28;20188;-76
2022/06/30 01:25:30;;;;;;;4.13;3.65;;;;;;;20.40;63.32;96863.50;4991150;28;20158;-76
2022/06/30 01:27:55;;;;;;;3.97;3.58;;;;;;;20.38;63.35;96855.13;5005873;28;20203;-76
2022/06/30 01:30:22;;;;;;;4.63;3.60;;;;;;;20.34;63.26;96853.41;4972845;28;20174;-76
2022/06/30 01:32:48;;;;;;;3.88;3.47;;;;;;;20.36;63.35;96853.91;5005809;28;20254;-76
2022/06/30 01:35:13;;;;;;;4.47;4.07;;;;;;;20.33;63.33;96854.53;4968727;28;20227;-76
2022/06/30 01:37:46;;;;;;;3.72;3.38;;;;;;;20.16;63.73;96858.00;4999481;28;20204;-76
2022/06/30 01:40:12;;;;;;;4.07;3.63;;;;;;;20.21;63.45;96850.66;4988751;28;20342;-76
2022/06/30 01:42:37;;;;;;;4.65;4.22;;;;;;;20.16;63.76;96852.69;4988793;28;20254;-76
2022/06/30 01:45:03;;;;;;;4.05;3.75;;;;;;;20.14;64.16;96852.25;4996983;28;20174;-76
2022/06/30 01:47:29;;;;;;;3.90;3.60;;;;;;;20.16;64.07;96842.91;4971751;28;20283;-76
2022/06/30 01:49:54;;;;;;;4.10;3.70;;;;;;;20.11;64.35;96840.41;4987156;28;20253;-76
2022/06/30 01:52:19;;;;;;;4.32;3.92;;;;;;;20.13;64.54;96840.88;4969363;28;20739;-76
2022/06/30 01:54:45;;;;;;;3.88;3.58;;;;;;;20.10;64.67;96843.38;4987438;28;20290;-76
2022/06/30 01:57:10;;;;;;;4.07;3.38;;;;;;;20.07;64.57;96841.38;4971909;28;20205;-76
2022/06/30 01:59:35;;;;;;;4.03;3.72;;;;;;;20.10;64.50;96844.16;4988446;28;20629;-76
2022/06/30 02:02:01;;;;;;;4.28;3.90;;;;;;;20.10;64.40;96835.44;5006618;28;20311;-76
2022/06/30 02:07:10;;;;;;;3.95;3.63;;;;;;;20.17;63.89;96848.97;5001499;28;20239;-76
2022/06/30 02:09:36;;;;;;;3.60;3.30;;;;;;;20.26;63.57;96836.50;4984685;28;20208;-76
2022/06/30 02:14:45;;;;;;;3.97;3.50;;;;;;;20.13;63.88;96835.59;4989100;28;20197;-76
2022/06/30 02:17:10;;;;;;;4.20;3.80;;;;;;;20.06;64.21;96831.88;4970718;28;20167;-76
2022/06/30 02:19:36;;;;;;;4.25;3.85;;;;;;;20.06;64.11;96837.94;4971417;28;20226;-76
2022/06/30 02:22:01;;;;;;;4.50;4.10;;;;;;;19.99;64.04;96825.19;4968340;28;20240;-76
2022/06/30 02:24:26;;;;;;;3.97;3.67;;;;;;;19.97;63.93;96826.63;4969047;28;20175;-76
2022/06/30 02:26:52;;;;;;;4.75;3.60;;;;;;;19.93;64.12;96828.31;4985017;28;20213;-76
2022/06/30 02:29:17;;;;;;;3.92;3.60;;;;;;;19.91;64.37;96836.59;4981964;28;20244;-76
2022/06/30 02:31:42;;;;;;;3.90;3.50;;;;;;;19.90;64.24;96829.75;4981179;28;20260;-76
2022/06/30 02:34:08;;;;;;;5.70;3.85;;;;;;;19.89;64.49;96830.81;4999653;28;20182;-76
2022/06/30 02:36:33;;;;;;;6.25;4.85;;;;;;;19.91;64.14;96828.66;5004514;28;20272;-76
2022/06/30 02:38:58;;;;;;;4.57;4.03;;;;;;;19.94;63.88;96828.00;5004969;28;20238;-76
2022/06/30 02:41:24;;;;;;;5.03;3.92;;;;;;;19.93;63.75;96820.41;5004494;28;20706;-76
2022/06/30 02:43:49;;;;;;;5.47;4.50;;;;;;;19.91;63.73;96825.22;4965997;28;20206;-76
2022/06/30 02:46:14;;;;;;;4.18;3.80;;;;;;;19.92;63.46;96832.84;5001461;28;20324;-76
2022/06/30 02:48:40;;;;;;;4.88;3.53;;;;;;;20.02;63.25;96829.09;4987716;28;20189;-76
2022/06/30 02:51:05;;;;;;;4.78;3.70;;;;;;;19.98;63.38;96823.66;4986921;28;20206;-76
2022/06/30 02:53:30;;;;;;;4.00;3.70;;;;;;;19.96;63.54;96825.84;4987791;28;20356;-76
2022/06/30 02:55:56;;;;;;;4.20;3.88;;;;;;;19.91;63.73;96826.03;5004517;28;20196;-76
2022/06/30 02:58:21;;;;;;;3.72;3.42;;;;;;;19.85;63.64;96832.53;4971317;28;20766;-76
2022/06/30 03:00:47;;;;;;;4.15;3.75;;;;;;;19.81;63.87;96832.41;5000199;28;20658;-76
2022/06/30 03:03:12;;;;;;;3.90;3.50;;;;;;;19.76;63.94;96837.06;4969689;28;20179;-76
2022/06/30 03:05:37;;;;;;;4.60;3.90;;;;;;;19.69;64.15;96839.34;4982258;28;20380;-76
2022/06/30 03:08:03;;;;;;;4.03;3.63;;;;;;;19.60;64.38;96828.78;4981735;28;20331;-76
2022/06/30 03:10:29;;;;;;;3.75;3.45;;;;;;;19.68;64.01;96843.09;4987051;28;20307;-76
2022/06/30 03:12:54;;;;;;;4.22;3.88;;;;;;;19.67;64.10;96841.53;4984552;28;20210;-76
2022/06/30 03:15:19;;;;;;;4.32;3.58;;;;;;;19.57;64.17;96840.75;4993656;28;20213;-76
2022/06/30 03:17:45;;;;;;;3.75;3.42;;;;;;;19.52;64.15;96840.91;4971485;28;20235;-76
2022/06/30 03:20:10;;;;;;;4.22;3.90;;;;;;;19.49;64.42;96840.75;4963630;28;20275;-76
2022/06/30 03:22:36;;;;;;;4.38;3.97;;;;;;;19.43;64.59;96840.91;4986196;28;20207;-76
2022/06/30 03:25:02;;;;;;;4.82;4.00;;;;;;;19.41;64.75;96834.38;4979990;28;20207;-76
2022/06/30 03:27:27;;;;;;;4.18;3.70;;;;;;;19.41;64.81;96831.75;4979121;28;20323;-76
2022/06/30 03:29:52;;;;;;;4.25;3.92;;;;;;;19.40;64.83;96824.91;4995342;28;20635;-76
2022/06/30 03:32:18;;;;;;;4.38;4.05;;;;;;;19.40;65.21;96828.34;4996284;28;20248;-76
2022/06/30 03:34:43;;;;;;;4.13;3.72;;;;;;;19.39;65.14;96820.72;4984331;28;20115;-76
2022/06/30 03:37:09;;;;;;;5.18;3.83;;;;;;;19.39;65.09;96820.72;5004137;28;20246;-76
2022/06/30 03:39:34;;;;;;;4.80;4.15;;;;;;;19.37;65.48;96820.25;5004108;28;20159;-76
2022/06/30 03:42:00;;;;;;;4.18;3.83;;;;;;;19.38;65.55;96824.44;5002821;28;20242;-76
2022/06/30 03:44:25;;;;;;;4.07;3.78;;;;;;;19.39;65.53;96821.50;5002767;28;20212;-76
2022/06/30 03:46:51;;;;;;;5.70;4.35;;;;;;;19.37;65.80;96813.09;4966729;28;20692;-76
2022/06/30 03:49:16;;;;;;;4.60;4.20;;;;;;;19.45;65.64;96820.25;5002401;28;20208;-76
2022/06/30 03:51:42;;;;;;;4.40;4.00;;;;;;;19.46;65.36;96824.44;5002325;28;20278;-76
2022/06/30 03:54:07;;;;;;;4.45;4.05;;;;;;;19.49;65.41;96825.69;4992078;28;20172;-76
2022/06/30 03:56:33;;;;;;;4.40;4.00;;;;;;;19.53;65.57;96831.91;4983577;28;20280;-76
2022/06/30 03:58:58;;;;;;;4.25;3.85;;;;;;;19.54;65.30;96830.06;4984018;28;20198;-76
2022/06/30 04:01:24;;;;;;;4.28;3.85;;;;;;;19.57;65.29;96827.56;4993933;28;20220;-76
2022/06/30 04:03:49;;;;;;;4.50;4.10;;;;;;;19.57;64.93;96824.91;4970807;28;20244;-76
2022/06/30 04:06:14;;;;;;;4.40;4.10;;;;;;;19.64;64.80;96833.16;4984816;28;20279;-76
2022/06/30 04:08:40;;;;;;;5.15;4.00;;;;;;;19.65;64.64;96834.72;5001283;28;20193;-76
2022/06/30 04:11:05;;;;;;;4.07;3.78;;;;;;;19.72;64.54;96828.94;4979714;28;20197;-76
2022/06/30 04:13:31;;;;;;;4.38;3.90;;;;;;;19.87;64.33;96829.59;4979308;28;20267;-76
2022/06/30 04:15:56;;;;;;;6.25;3.80;;;;;;;19.90;64.21;96840.31;4978679;28;20201;-76
2022/06/30 04:18:22;;;;;;;4.57;4.13;;;;;;;19.88;64.01;96839.84;4983622;28;20177;-76
2022/06/30 04:20:47;;;;;;;4.32;3.60;;;;;;;19.96;63.81;96839.06;4960976;28;20682;-76
2022/06/30 04:23:13;;;;;;;4.95;4.07;;;;;;;19.96;64.10;96841.72;4980893;28;20303;-76
2022/06/30 04:25:39;;;;;;;4.82;4.22;;;;;;;19.98;64.18;96847.44;4977441;28;20193;-76
2022/06/30 04:28:05;;;;;;;4.55;3.58;;;;;;;19.92;64.50;96842.63;5001239;28;20174;-76
2022/06/30 04:33:15;;;;;;;4.38;3.97;;;;;;;19.93;64.46;96842.34;4992946;28;20173;-76
2022/06/30 04:35:40;;;;;;;4.50;4.10;;;;;;;19.92;64.73;96829.44;4986686;28;20248;-76
2022/06/30 04:38:05;;;;;;;4.88;4.47;;;;;;;19.96;64.83;96827.69;4984569;28;20193;-77
2022/06/30 04:43:15;;;;;;;4.28;3.97;;;;;;;20.19;64.45;96829.06;4995392;28;20342;-76
2022/06/30 04:45:41;;;;;;;4.60;3.78;;;;;;;20.24;64.48;96814.91;4984165;28;20293;-78
2022/06/30 04:48:06;;;;;;;4.10;3.80;;;;;;;20.28;64.46;96815.81;4981288;28;20155;-78
2022/06/30 04:50:32;;;;;;;4.13;3.70;;;;;;;20.39;64.43;96810.94;4993234;28;20189;-78
2022/06/30 04:52:57;;;;;;;4.40;4.00;;;;;;;20.45;64.15;96812.34;4973534;28;20170;-78
2022/06/30 04:55:23;;;;;;;4.57;4.18;;;;;;;20.51;64.20;96810.28;4991454;28;20357;-79
2022/06/30 04:57:48;;;;;;;4.40;4.00;;;;;;;20.56;64.23;96807.47;5002737;28;20285;-79
2022/06/30 05:00:14;;;;;;;5.32;4.28;;;;;;;20.65;64.34;96794.22;5010505;28;20100;-79
2022/06/30 05:02:40;;;;;;;3.78;3.40;;;;;;;20.81;63.94;96794.47;5007263;28;20121;-78
2022/06/30 05:05:05;;;;;;;4.45;4.10;;;;;;;20.94;64.20;96796.88;4995403;28;20353;-78
2022/06/30 05:07:31;;;;;;;3.92;3.50;;;;;;;21.08;63.98;96795.88;4992095;28;20197;-78
2022/06/30 05:09:56;;;;;;;3.85;3.55;;;;;;;21.13;63.95;96791.16;4993230;28;20235;-79
2022/06/30 05:12:21;;;;;;;5.05;3.80;;;;;;;21.24;63.70;96796.06;4990434;28;20190;-79
2022/06/30 05:14:47;;;;;;;4.32;3.70;;;;;;;21.35;63.54;96789.25;4995249;28;20298;-79
2022/06/30 05:17:12;;;;;;;6.00;3.60;;;;;;;21.51;63.19;96792.91;5011470;28;20688;-79
2022/06/30 05:19:38;;;;;;;4.43;4.00;;;;;;;21.57;63.33;96790.81;5008682;28;20185;-76
2022/06/30 05:22:07;;;;;;;3.70;3.40;;;;;;;21.62;62.96;96795.16;4975316;28;20271;-76
2022/06/30 05:27:16;;;;;;;4.60;4.03;;;;;;;21.89;62.21;96791.94;5005027;28;20299;-76
2022/06/30 05:29:41;;;;;;;3.90;3.60;;;;;;;22.00;61.89;96789.66;5005172;28;20184;-76
2022/06/30 05:32:07;;;;;;;3.70;3.40;;;;;;;22.07;61.34;96789.88;5004688;28;20217;-76
2022/06/30 05:34:34;;;;;;;3.92;3.63;;;;;;;22.18;60.76;96792.88;4971444;28;20682;-76
2022/06/30 05:36:59;;;;;;;4.20;3.47;;;;;;;22.25;60.75;96795.75;4984642;28;20639;-76
2022/06/30 05:39:25;;;;;;;3.72;3.50;;;;;;;22.36;60.67;96798.00;5002003;28;20200;-76
2022/06/30 05:41:50;;;;;;;4.03;3.70;;;;;;;22.47;60.87;96796.47;4987053;28;20723;-76
2022/06/30 05:44:15;;;;;;;4.93;3.45;;;;;;;22.54;60.52;96801.25;4997258;28;20178;-76
2022/06/30 05:46:41;;;;;;;3.25;3.05;;;;;;;22.61;60.17;96799.56;5004496;28;20212;-76
2022/06/30 05:49:08;;;;;;;3.70;3.40;;;;;;;22.71;59.60;96797.59;4988395;28;20266;-76
2022/06/30 05:51:34;;;;;;;3.40;3.10;;;;;;;22.78;59.42;96800.47;4999001;28;20275;-76
2022/06/30 05:53:59;;;;;;;3.85;3.50;;;;;;;22.84;59.52;96795.69;4984952;28;20346;-76
2022/06/30 05:56:24;;;;;;;3.72;3.42;;;;;;;22.97;59.55;96802.53;4995193;28;20257;-76
2022/06/30 05:58:50;;;;;;;3.20;3.00;;;;;;;23.03;59.58;96795.13;5005232;28;20619;-76
2022/06/30 06:01:15;;;;;;;4.25;3.60;;;;;;;23.14;59.85;96782.97;5004411;28;20177;-76
2022/06/30 06:03:41;;;;;;;4.97;3.40;;;;;;;23.28;60.39;96782.59;5005399;28;20213;-76
2022/06/30 06:06:06;;;;;;;4.13;3.72;;;;;;;23.45;60.74;96770.91;5003266;28;20143;-76
2022/06/30 06:08:31;;;;;;;4.35;3.80;;;;;;;23.63;60.68;96766.06;4980183;28;20299;-76
2022/06/30 06:10:57;;;;;;;3.60;3.30;;;;;;;23.89;59.10;96765.66;4985251;28;20257;-76
2022/06/30 06:13:22;;;;;;;3.83;3.53;;;;;;;24.03;59.39;96771.31;4985084;28;20147;-76
2022/06/30 06:15:47;;;;;;;3.72;3.40;;;;;;;24.21;59.00;96777.06;4981234;28;20286;-76
2022/06/30 06:18:14;;;;;;;5.35;3.85;;;;;;;24.44;58.23;96784.44;5006161;28;20707;-76
2022/06/30 06:20:41;;;;;;;3.30;3.08;;;;;;;24.64;57.87;96788.75;4988489;28;20193;-76
2022/06/30 06:23:06;;;;;;;4.75;3.42;;;;;;;24.83;57.51;96795.22;5006596;28;20345;-76
2022/06/30 06:25:32;;;;;;;4.30;4.00;;;;;;;25.03;57.70;96793.38;5004755;28;20758;-76
2022/06/30 06:30:41;;;;;;;3.72;3.33;;;;;;;25.46;57.54;96799.63;5004994;28;20708;-76
2022/06/30 06:33:06;;;;;;;3.67;3.38;;;;;;;25.66;57.39;96796.97;4991170;28;20255;-76
2022/06/30 06:35:32;;;;;;;3.80;3.50;;;;;;;25.91;56.58;96802.72;5000264;28;20283;-76
2022/06/30 06:37:57;;;;;;;5.03;3.80;;;;;;;26.16;55.13;96805.88;5000901;28;20232;-76
2022/06/30 06:40:23;;;;;;;3.45;3.15;;;;;;;26.40;54.30;96804.75;5004819;28;20194;-76
2022/06/30 06:42:48;;;;;;;6.55;3.10;;;;;;;26.68;54.47;96804.44;4988550;28;20069;-77
2022/06/30 06:45:13;;;;;;;3.35;2.90;;;;;;;27.05;53.21;96814.50;4973463;28;20295;-77
2022/06/30 06:47:39;;;;;;;3.95;3.10;;;;;;;27.41;52.09;96806.19;4984226;28;20252;-77
2022/06/30 06:50:08;;;;;;;3.67;3.35;;;;;;;27.57;51.27;96800.66;4994085;28;20239;-76
2022/06/30 06:52:34;;;;;;;4.60;2.78;;;;;;;27.98;49.65;96795.38;4994908;28;20185;-77
2022/06/30 06:55:00;;;;;;;3.30;3.10;;;;;;;28.13;47.97;96802.38;4979636;28;20202;-76
2022/06/30 06:57:32;;;;;;;3.08;2.88;;;;;;;28.21;48.26;96795.97;4979481;28;20135;-77
2022/06/30 06:59:57;;;;;;;5.18;3.25;;;;;;;28.57;47.20;96798.94;5001156;28;20338;-76
2022/06/30 07:02:22;;;;;;;3.28;3.00;;;;;;;28.78;46.13;96800.22;5000381;28;20144;-77
2022/06/30 07:04:49;;;;;;;3.00;2.53;;;;;;;29.16;45.91;96805.41;4977964;28;20712;-77
2022/06/30 07:07:15;;;;;;;3.00;2.70;;;;;;;29.48;43.81;96800.22;4992539;28;20218;-77
2022/06/30 07:09:40;;;;;;;2.85;2.25;;;;;;;29.79;44.52;96804.16;4980111;28;20177;-77
2022/06/30 07:12:06;;;;;;;3.15;2.33;;;;;;;29.97;41.06;96798.06;4977612;28;20231;-78
2022/06/30 07:14:31;;;;;;;2.83;2.60;;;;;;;30.36;39.30;96798.13;4998332;28;20703;-78
2022/06/30 07:16:57;;;;;;;2.95;2.10;;;;;;;30.59;38.31;96796.97;4996623;28;20330;-78
2022/06/30 07:19:22;;;;;;;2.25;2.10;;;;;;;30.78;38.13;96804.59;4996157;28;20201;-78
2022/06/30 07:21:47;;;;;;;2.25;2.05;;;;;;;30.84;35.77;96809.59;4997994;28;20205;-78
2022/06/30 07:24:13;;;;;;;2.58;2.38;;;;;;;31.05;36.15;96800.72;4996293;28;20159;-78
2022/06/30 07:26:38;;;;;;;3.28;2.20;;;;;;;31.29;38.27;96801.78;4996593;28;20270;-78
2022/06/30 07:29:03;;;;;;;3.13;2.08;;;;;;;31.33;37.18;96802.56;4982150;28;20271;-79
2022/06/30 07:31:29;;;;;;;2.00;1.80;;;;;;;31.59;36.53;96792.47;4994247;28;20250;-78
2022/06/30 07:33:55;;;;;;;1.83;1.73;;;;;;;31.36;35.47;96801.78;4977213;28;20695;-79
2022/06/30 07:36:20;;;;;;;2.95;2.20;;;;;;;31.57;34.71;96800.19;4990424;28;20092;-78
2022/06/30 07:38:47;;;;;;;2.13;2.03;;;;;;;31.78;34.80;96794.66;4979476;28;20162;-78
2022/06/30 07:41:12;;;;;;;2.22;2.13;;;;;;;31.92;34.05;96797.25;4972326;28;20196;-79
2022/06/30 07:43:38;;;;;;;2.30;2.03;;;;;;;31.90;33.83;96796.91;4985077;28;20547;-78
2022/06/30 07:46:04;;;;;;;2.63;2.42;;;;;;;31.96;34.30;96799.97;4968696;28;20183;-79
2022/06/30 07:48:30;;;;;;;2.28;2.17;;;;;;;32.05;34.16;96799.50;4982117;28;20261;-78
2022/06/30 07:50:55;;;;;;;2.10;2.00;;;;;;;32.24;32.69;96799.00;4995285;28;20304;-79
2022/06/30 07:53:20;;;;;;;2.65;1.98;;;;;;;32.32;34.93;96796.25;4996601;28;20231;-78
2022/06/30 07:55:46;;;;;;;3.33;1.98;;;;;;;32.48;32.92;96801.91;4994344;28;20616;-78
2022/06/30 07:58:11;;;;;;;2.70;2.50;;;;;;;32.45;34.11;96797.28;4999905;28;20279;-79
2022/06/30 08:00:37;;;;;;;3.25;2.20;;;;;;;32.59;34.55;96796.41;5001107;28;20283;-78
2022/06/30 08:03:02;;;;;;;2.25;2.03;;;;;;;32.71;30.69;96804.00;5001471;28;20118;-78
2022/06/30 08:05:27;;;;;;;2.90;2.10;;;;;;;32.78;31.66;96795.88;4988501;28;20208;-79
2022/06/30 08:07:53;;;;;;;3.10;1.80;;;;;;;33.04;31.27;96802.53;4983464;28;20169;-78
2022/06/30 08:10:18;;;;;;;1.95;1.70;;;;;;;32.85;29.72;96792.31;4989595;28;20646;-78
2022/06/30 08:12:44;;;;;;;2.30;2.03;;;;;;;33.02;30.82;96788.69;5000978;28;20201;-79
2022/06/30 08:15:09;;;;;;;2.20;1.90;;;;;;;33.18;31.80;96784.69;4985748;28;20274;-78
2022/06/30 08:17:35;;;;;;;2.97;2.30;;;;;;;33.12;30.07;96788.94;4983605;28;20212;-79
2022/06/30 08:20:01;;;;;;;3.97;1.98;;;;;;;33.49;30.56;96790.84;4984055;28;20206;-78
2022/06/30 08:22:26;;;;;;;2.30;1.70;;;;;;;33.73;30.60;96793.66;4985467;28;20193;-78
2022/06/30 08:24:52;;;;;;;2.53;2.00;;;;;;;33.84;30.08;96794.25;4987715;28;20265;-79
2022/06/30 08:27:17;;;;;;;2.17;2.05;;;;;;;33.94;29.37;96790.63;4990504;28;20646;-78
2022/06/30 08:29:43;;;;;;;2.47;2.20;;;;;;;34.00;28.50;96779.34;5001017;28;20280;-78
2022/06/30 08:32:08;;;;;;;2.42;2.22;;;;;;;33.96;29.29;96782.09;4973311;28;20202;-78
2022/06/30 08:34:33;;;;;;;3.55;2.25;;;;;;;34.06;29.99;96777.72;4999272;28;20208;-78
2022/06/30 08:36:59;;;;;;;2.42;2.05;;;;;;;34.17;29.02;96777.53;4978751;28;20193;-78
2022/06/30 08:42:09;;;;;;;1.92;1.83;;;;;;;34.57;28.54;96773.03;5009225;28;20255;-78
2022/06/30 08:44:36;;;;;;;2.20;2.05;;;;;;;34.77;27.64;96775.81;4985333;28;20675;-78
2022/06/30 08:47:03;;;;;;;1.90;1.80;;;;;;;34.93;28.92;96772.41;5000915;28;20162;-78
2022/06/30 08:49:29;;;;;;;2.65;2.42;;;;;;;34.69;25.43;96779.78;4987366;28;20210;-78
2022/06/30 08:51:58;;;;;;;2.25;2.13;;;;;;;34.79;28.00;96781.56;4983281;28;20782;-78
2022/06/30 08:54:29;;;;;;;3.22;2.15;;;;;;;34.22;27.87;96764.34;4982676;28;20205;-77
2022/06/30 08:56:56;;;;;;;2.63;2.42;;;;;;;34.11;29.86;96766.44;5000714;28;20674;-78
2022/06/30 08:59:24;;;;;;;2.05;1.83;;;;;;;34.14;28.76;96771.78;4991689;28;20179;-78
2022/06/30 09:01:50;;;;;;;2.28;2.17;;;;;;;33.75;28.08;96764.28;4995997;28;20612;-77
2022/06/30 09:04:15;;;;;;;2.40;2.15;;;;;;;33.84;29.28;96764.53;4984454;28;20695;-77
2022/06/30 09:06:44;;;;;;;2.20;2.10;;;;;;;33.31;28.38;96764.06;4980653;28;20283;-77
2022/06/30 09:09:11;;;;;;;2.67;2.20;;;;;;;33.68;28.64;96764.41;4966332;28;20344;-78
2022/06/30 09:11:54;;;;;;;2.35;2.15;;;;;;;33.63;27.06;96762.13;4989461;28;20287;-78
2022/06/30 09:14:32;;;;;;;2.70;2.13;;;;;;;34.02;29.14;96761.56;4972692;28;20181;-77
2022/06/30 09:16:58;;;;;;;2.33;2.20;;;;;;;34.62;29.24;96755.59;5007310;28;20170;-77
2022/06/30 09:19:23;;;;;;;2.10;1.95;;;;;;;34.74;28.23;96752.28;5000481;28;20666;-77
2022/06/30 09:22:10;;;;;;;2.40;2.20;;;;;;;34.95;28.32;96759.22;4985908;28;20253;-77
2022/06/30 09:24:36;;;;;;;2.10;1.90;;;;;;;35.43;25.94;96749.00;4978297;28;20244;-77
2022/06/30 09:27:23;;;;;;;2.65;1.98;;;;;;;35.35;26.21;96755.75;4992140;28;20579;-77
2022/06/30 09:30:04;;;;;;;1.65;1.55;;;;;;;35.45;25.88;96752.81;4987576;28;20240;-77
2022/06/30 09:32:31;;;;;;;1.85;1.75;;;;;;;35.21;27.23;96754.84;4978066;28;20218;-77
2022/06/30 09:35:09;;;;;;;23.23;3.38;;;;;;;34.81;27.51;96757.56;4991391;28;20198;-77
2022/06/30 09:37:35;;;;;;;3.95;2.30;;;;;;;34.70;26.71;96755.03;4977000;28;20290;-77
2022/06/30 09:40:00;;;;;;;2.03;1.92;;;;;;;34.80;27.47;96747.91;4975716;28;20419;-77
2022/06/30 09:42:39;;;;;;;2.03;1.92;;;;;;;34.35;27.44;96751.03;4984714;28;20210;-77
2022/06/30 09:45:06;;;;;;;2.33;2.22;;;;;;;34.63;27.37;96749.72;4974473;28;20266;-77
2022/06/30 09:47:32;;;;;;;2.47;2.38;;;;;;;34.96;27.07;96746.44;4992282;28;20174;-77
2022/06/30 09:50:02;;;;;;;2.70;2.50;;;;;;;34.88;26.82;96743.91;4991009;28;20280;-77
2022/06/30 09:52:28;;;;;;;2.53;2.40;;;;;;;35.21;28.22;96744.03;4990251;28;20181;-77
2022/06/30 09:54:59;;;;;;;2.50;2.30;;;;;;;35.46;26.07;96740.03;5004043;28;20430;-77
2022/06/30 09:57:27;;;;;;;2.50;2.40;;;;;;;35.73;26.12;96747.97;5000415;28;20288;-77
2022/06/30 10:00:13;;;;;;;2.10;2.00;;;;;;;36.08;25.71;96739.44;4980514;28;20204;-77
2022/06/30 10:02:41;;;;;;;3.60;2.35;;;;;;;35.92;26.59;96742.88;4982890;28;20198;-77
2022/06/30 10:05:09;;;;;;;2.80;2.38;;;;;;;36.25;26.19;96738.25;4973925;28;20250;-77
2022/06/30 10:07:35;;;;;;;2.42;1.85;;;;;;;36.22;24.19;96739.09;4991155;28;20213;-76
2022/06/30 10:10:15;;;;;;;2.58;2.38;;;;;;;36.56;24.80;96735.88;4982302;28;20197;-76
2022/06/30 10:12:45;;;;;;;2.33;2.17;;;;;;;36.40;23.35;96744.06;5005839;28;20290;-77
2022/06/30 10:15:12;;;;;;;2.47;2.22;;;;;;;36.20;27.47;96741.44;4993817;28;20240;-77
2022/06/30 10:18:05;;;;;;;2.53;2.33;;;;;;;36.60;27.17;96743.16;4987459;28;20196;-77
2022/06/30 10:20:33;;;;;;;2.25;2.13;;;;;;;36.83;25.64;96737.53;4996844;28;20318;-76
2022/06/30 10:22:59;;;;;;;4.03;2.67;;;;;;;36.77;25.49;96731.09;4983945;28;20210;-76
2022/06/30 10:25:25;;;;;;;2.58;2.30;;;;;;;36.85;26.04;96727.00;4966916;28;20201;-77
2022/06/30 10:27:51;;;;;;;2.13;2.03;;;;;;;36.99;23.36;96733.97;4997155;28;20638;-76
2022/06/30 10:30:21;;;;;;;5.55;3.03;;;;;;;36.76;25.98;96737.72;5003625;28;20270;-76
2022/06/30 10:33:31;;;;;;;2.55;2.35;;;;;;;37.18;24.29;96731.53;4987210;28;20219;-76
2022/06/30 10:36:05;;;;;;;2.22;2.13;;;;;;;37.10;23.61;96730.94;4965019;28;20277;-76
2022/06/30 10:38:41;;;;;;;3.00;2.80;;;;;;;37.32;26.16;96731.13;4978198;28;20276;-77
2022/06/30 10:41:17;;;;;;;2.30;2.20;;;;;;;37.45;22.57;96728.41;4997827;28;20180;-76
2022/06/30 10:44:05;;;;;;;2.35;2.25;;;;;;;37.26;24.45;96730.16;4995834;28;20698;-76
2022/06/30 10:46:56;;;;;;;2.17;2.08;;;;;;;36.88;23.25;96725.38;4995965;28;20658;-76
2022/06/30 10:49:27;;;;;;;2.67;2.50;;;;;;;36.98;23.34;96729.72;5003999;28;20673;-76
2022/06/30 10:52:16;;;;;;;2.30;2.20;;;;;;;37.47;24.17;96720.59;4977962;28;20280;-76
2022/06/30 10:54:44;;;;;;;2.35;2.25;;;;;;;37.74;22.27;96722.13;4988531;28;20639;-77
2022/06/30 10:57:09;;;;;;;2.42;2.30;;;;;;;37.81;24.00;96716.47;4979397;28;20256;-76
2022/06/30 10:59:41;;;;;;;3.90;2.58;;;;;;;37.60;22.74;96715.91;4977151;28;20355;-77
2022/06/30 11:02:06;;;;;;;2.15;2.03;;;;;;;37.03;22.10;96712.91;4995618;28;20209;-77
2022/06/30 11:04:32;;;;;;;2.88;2.40;;;;;;;37.13;24.82;96716.50;5001239;28;20197;-77
2022/06/30 11:07:10;;;;;;;2.67;2.10;;;;;;;37.26;24.59;96714.59;4963399;28;20342;-76
2022/06/30 11:09:44;;;;;;;2.20;2.10;;;;;;;37.66;21.96;96711.47;4965145;28;20184;-76
2022/06/30 11:12:14;;;;;;;2.17;2.00;;;;;;;37.82;23.00;96713.31;4967572;28;20218;-76
2022/06/30 11:14:48;;;;;;;2.88;2.78;;;;;;;37.39;23.00;96708.41;4985852;28;20344;-76
2022/06/30 11:17:21;;;;;;;2.25;2.15;;;;;;;37.53;21.64;96707.22;4980112;28;20220;-76
2022/06/30 11:19:48;;;;;;;2.47;2.30;;;;;;;37.30;24.27;96706.34;4995651;28;20263;-77
2022/06/30 11:22:15;;;;;;;2.15;2.03;;;;;;;37.29;23.58;96696.69;5003304;28;20255;-77
2022/06/30 11:24:42;;;;;;;2.60;2.40;;;;;;;37.23;23.41;96693.00;4972255;28;20647;-76
2022/06/30 11:27:25;;;;;;;2.13;1.92;;;;;;;37.05;22.54;96688.84;4982758;28;20202;-76
2022/06/30 11:29:58;;;;;;;2.28;2.17;;;;;;;36.49;24.26;96686.50;4983516;28;20190;-76
2022/06/30 11:32:24;;;;;;;2.28;2.08;;;;;;;36.74;23.52;96694.75;4988469;28;20270;-76
2022/06/30 11:34:50;;;;;;;2.28;2.17;;;;;;;36.54;24.06;96685.97;4968915;28;20167;-76
2022/06/30 11:37:24;;;;;;;2.50;2.30;;;;;;;36.56;24.41;96686.31;4990463;28;20248;-76
2022/06/30 11:40:00;;;;;;;2.83;2.63;;;;;;;36.59;24.26;96679.25;4987276;28;20246;-76
2022/06/30 11:42:26;;;;;;;2.25;2.13;;;;;;;36.13;22.89;96676.56;4985206;28;20579;-76
2022/06/30 11:44:52;;;;;;;2.95;2.28;;;;;;;35.92;24.67;96680.56;4998845;28;20184;-77
2022/06/30 11:47:18;;;;;;;2.70;2.53;;;;;;;35.47;24.27;96671.16;4990143;28;20170;-77
2022/06/30 11:49:50;;;;;;;2.30;2.10;;;;;;;34.83;23.58;96668.66;4969737;28;20193;-76
2022/06/30 11:52:17;;;;;;;2.55;2.33;;;;;;;34.56;24.35;96671.47;4988634;28;20175;-77
2022/06/30 11:54:56;;;;;;;2.20;2.10;;;;;;;34.31;24.74;96663.84;4973608;28;20169;-77